Banner, Wyoming
Current Conditions -  °F | °C
As of 11:53 PM on Friday 28 Nov 2014 (Local Time) from KSHR Reporting Station
Clear Clear  
Wind Chill: 14°   Ceiling: Unl
Heat Index: 14°   Visibility: 10mi
Dew Point: -9°   Wind: 33mph
Humidity: 19%   Direction: 230°SW
Pressure: 29.38"   Gusts: 48mph
Location:  44.6°N, 106.87°W
Report Text: KSHR 290653Z AUTO 23029G42KT 10SM CLR 14/M09 A2938 RMK AO2 PK WND 24058/0619 SLP924 T01391094 401720061 TSNO
Loading
Personal Weather Stations






























Interactive Weather Map New forecast layout! Learn more

10-Day Weather Forecast

Advertisements
Track Severe Weather on mobile